Aérodrome :
LOGIN :

S'inscrire | Disclaimer

   EN    FR    IT 

 










Légende :    VFR   VFR Marginal   IFR   IFR Intensif   IFR Très Intensif
Visi : 
Plafond : 
>= 8 km
>= 3000ft
5 à 8 km
1000 à 3000 ft
1500m à 5 km
500 à 1000 ft
800 à 1500m
200 à 500 ft
< 800m
< 200 ft
Symboles :   Orages  Brouillard  Fortes neiges  Fortes précipitations  Vent > 20 kt
SIGMETs :   Divers  Orages  Givrage  Turbulence  Onde Orograph.  Cendres Volcan.






- Altitude de l'aérodrome : 33 ft
- Code IATA : MHZ


EGUN - RAF Mildenhall

DERNIER METAR :
  • 180556Z 32006KT 9999 FEW025 05/01 A2992 RMK SLPNO WND DATA ESTMD ALTSG ESTMD 10071 20039 RVRNO $

METARs EXPIRÉS :
  • 180456Z AUTO 32007KT 9999 SCT025 SCT140 04/04 A2992 RMK AO2 SLP136 T00410041 $
  • 180356Z AUTO 32007KT 9999 FEW033 05/05 A2992 RMK AO2 SLP135 T00490049 $

TAF TAF EGUN
Valide du 18 à 04h jusqu'au 19 à 10h UTC


180400Z 1804/1910 33006KT 9999 BKN020 OVC040 QNH2992INS
TEMPO 1804/1806 34010G20KT BKN015
BECMG 1805/1806 35015G25KT 9999 BKN015 QNH2993INS
BECMG 1815/1816 32012KT 9999 BKN020 QNH2996INS
BECMG 1821/1822 29009KT 9999 SCT020 QNH2997INS TX08/1812Z TN00/1901Z



MET'MAP, la Météo Aéronautique d'un coup d'oeil ! - Copyright ORBIFLY Décembre 2007 - Disclaimer

ORBIFLY MET'MAP TEAM :

Programmation & Développement : Alexandra Zaïnal
Conception & Développement : Baudouin d'Aumeries
Co-Programmation & Développement : Marc-Olivier Méhu
Soutien technique & logistique : Manuel Goepfert

Contact : metmap@orbifly.com




SOURCES & CREDITS :

   NOAA